Time;durP1;ratioP1;P1;durP2;ratioP2;P2;SDS_P1;SDS_P2;PMS_P1;PMS_P2;Temp;Humidity;BMP_temperature;BMP_pressure;BME280_temperature;BME280_humidity;BME280_pressure;Samples;Min_cycle;Max_cycle;Signal;HPM_P1;HPM_P2
2022/07/11 00:02:03;;;;;;;0.10;0.10;;;;;;;;;;6198999;22;20094;-89
2022/07/11 00:04:29;;;;;;;0.10;0.10;;;;;;;;;;6199114;22;20206;-88
2022/07/11 00:06:56;;;;;;;0.10;0.10;;;;;;;;;;6224346;22;20024;-88
2022/07/11 00:09:22;;;;;;;0.10;0.10;;;;;;;;;;6224132;22;20444;-88
2022/07/11 00:11:48;;;;;;;0.10;0.10;;;;;;;;;;6224242;22;20437;-89
2022/07/11 00:14:14;;;;;;;0.10;0.10;;;;;;;;;;6224323;22;20086;-89
2022/07/11 00:16:40;;;;;;;0.10;0.10;;;;;;;;;;6224321;22;20301;-89
2022/07/11 00:19:06;;;;;;;0.10;0.10;;;;;;;;;;6199115;22;20012;-89
2022/07/11 00:21:34;;;;;;;0.10;0.10;;;;;;;;;;6249270;22;20019;-89
2022/07/11 00:24:00;;;;;;;0.10;0.10;;;;;;;;;;6199459;22;20019;-89
2022/07/11 00:26:26;;;;;;;0.10;0.10;;;;;;;;;;6224162;22;20022;-89
2022/07/11 00:28:52;;;;;;;0.10;0.10;;;;;;;;;;6223981;22;20043;-88
2022/07/11 00:31:18;;;;;;;0.10;0.10;;;;;;;;;;6199050;22;20394;-89
2022/07/11 00:33:44;;;;;;;0.10;0.10;;;;;;;;;;6198927;22;20015;-88
2022/07/11 00:36:10;;;;;;;0.10;0.10;;;;;;;;;;6249098;22;20019;-89
2022/07/11 00:38:36;;;;;;;0.10;0.10;;;;;;;;;;6223986;22;20471;-88
2022/07/11 00:41:02;;;;;;;0.10;0.10;;;;;;;;;;6223966;22;20015;-89
2022/07/11 00:43:35;;;;;;;0.10;0.10;;;;;;;;;;6198825;22;20019;-90
2022/07/11 00:46:01;;;;;;;0.10;0.10;;;;;;;;;;6198831;22;20440;-89
2022/07/11 00:48:27;;;;;;;0.10;0.10;;;;;;;;;;6223774;22;20012;-90
2022/07/11 00:50:53;;;;;;;0.10;0.10;;;;;;;;;;6198975;22;20026;-90
2022/07/11 00:53:19;;;;;;;0.10;0.10;;;;;;;;;;6224202;22;20046;-90
2022/07/11 00:55:46;;;;;;;0.10;0.10;;;;;;;;;;6198937;22;20095;-90
2022/07/11 00:58:12;;;;;;;0.10;0.10;;;;;;;;;;6199194;22;20038;-91
2022/07/11 01:00:38;;;;;;;0.10;0.10;;;;;;;;;;6199042;22;20467;-91
2022/07/11 01:03:04;;;;;;;1.83;0.30;;;;;;;;;;6198931;22;20094;-91
2022/07/11 01:05:31;;;;;;;0.10;0.10;;;;;;;;;;6223773;22;20061;-92
2022/07/11 01:07:57;;;;;;;0.10;0.10;;;;;;;;;;6199139;22;20099;-90
2022/07/11 01:10:23;;;;;;;0.10;0.10;;;;;;;;;;6223824;22;20042;-90
2022/07/11 01:12:50;;;;;;;0.10;0.10;;;;;;;;;;6198841;22;20448;-91
2022/07/11 01:15:16;;;;;;;0.10;0.10;;;;;;;;;;6224162;22;20061;-91
2022/07/11 01:17:42;;;;;;;0.10;0.10;;;;;;;;;;6198621;22;20008;-91
2022/07/11 01:20:08;;;;;;;0.10;0.10;;;;;;;;;;6198922;22;20019;-91
2022/07/11 01:22:37;;;;;;;0.10;0.10;;;;;;;;;;6223997;22;20011;-92
2022/07/11 01:25:03;;;;;;;0.10;0.10;;;;;;;;;;6199088;22;20448;-92
2022/07/11 01:27:29;;;;;;;0.10;0.10;;;;;;;;;;6199093;22;20463;-92
2022/07/11 01:29:55;;;;;;;0.10;0.10;;;;;;;;;;6198712;22;20453;-90
2022/07/11 01:32:22;;;;;;;0.10;0.10;;;;;;;;;;6224180;22;20015;-88
2022/07/11 01:34:48;;;;;;;0.10;0.10;;;;;;;;;;6223869;22;20012;-88
2022/07/11 01:37:14;;;;;;;0.10;0.10;;;;;;;;;;6223542;22;20008;-89
2022/07/11 01:39:40;;;;;;;0.10;0.10;;;;;;;;;;6198232;22;20600;-89
2022/07/11 01:42:06;;;;;;;0.10;0.10;;;;;;;;;;6198281;22;20011;-90
2022/07/11 01:44:32;;;;;;;0.10;0.10;;;;;;;;;;6198007;22;20015;-90
2022/07/11 01:46:58;;;;;;;0.10;0.10;;;;;;;;;;6223579;22;20051;-91
2022/07/11 01:49:29;;;;;;;0.10;0.10;;;;;;;;;;6223220;22;20209;-90
2022/07/11 01:51:55;;;;;;;0.10;0.10;;;;;;;;;;6224353;22;20362;-91
2022/07/11 01:54:21;;;;;;;0.10;0.10;;;;;;;;;;6248633;22;20022;-90
2022/07/11 01:56:47;;;;;;;0.32;0.32;;;;;;;;;;6198305;22;20104;-90
2022/07/11 01:59:13;;;;;;;0.10;0.10;;;;;;;;;;6223236;22;20105;-89
2022/07/11 02:01:39;;;;;;;0.10;0.10;;;;;;;;;;6223203;22;20015;-90
2022/07/11 02:04:05;;;;;;;0.10;0.10;;;;;;;;;;6223276;22;20319;-91
2022/07/11 02:06:31;;;;;;;0.10;0.10;;;;;;;;;;6198365;22;20366;-91
2022/07/11 02:08:57;;;;;;;0.10;0.10;;;;;;;;;;6198580;22;20372;-93
2022/07/11 02:11:26;;;;;;;0.10;0.10;;;;;;;;;;6225157;22;20015;-92
2022/07/11 02:13:52;;;;;;;0.10;0.10;;;;;;;;;;6199294;22;20012;-91
2022/07/11 02:16:18;;;;;;;0.10;0.10;;;;;;;;;;6223275;22;20016;-90
2022/07/11 02:18:44;;;;;;;0.10;0.10;;;;;;;;;;6223187;22;20178;-90
2022/07/11 02:21:12;;;;;;;0.10;0.10;;;;;;;;;;6198178;22;20348;-90
2022/07/11 02:23:38;;;;;;;0.10;0.10;;;;;;;;;;6223456;22;20314;-91
2022/07/11 02:26:04;;;;;;;0.10;0.10;;;;;;;;;;6198327;22;20449;-90
2022/07/11 02:28:30;;;;;;;0.10;0.10;;;;;;;;;;6198137;22;20518;-90
2022/07/11 02:30:56;;;;;;;0.10;0.10;;;;;;;;;;6197949;22;20012;-90
2022/07/11 02:33:22;;;;;;;0.10;0.10;;;;;;;;;;6198104;22;20105;-89
2022/07/11 02:35:48;;;;;;;0.10;0.10;;;;;;;;;;6223056;22;20368;-90
2022/07/11 02:38:14;;;;;;;0.10;0.10;;;;;;;;;;6248101;22;20084;-89
2022/07/11 02:40:40;;;;;;;0.10;0.10;;;;;;;;;;6198150;22;20022;-89
2022/07/11 02:43:07;;;;;;;0.10;0.10;;;;;;;;;;6198018;22;20444;-89
2022/07/11 02:45:35;;;;;;;0.10;0.10;;;;;;;;;;6198304;22;20011;-89
2022/07/11 02:48:01;;;;;;;0.10;0.10;;;;;;;;;;6222861;22;20192;-91
2022/07/11 02:50:27;;;;;;;0.10;0.10;;;;;;;;;;6223172;22;20051;-91
2022/07/11 02:52:53;;;;;;;0.10;0.10;;;;;;;;;;6198127;22;20008;-90
2022/07/11 02:55:19;;;;;;;0.30;0.30;;;;;;;;;;6197971;22;20016;-90
2022/07/11 02:57:45;;;;;;;0.10;0.10;;;;;;;;;;6224849;22;20011;-90
2022/07/11 03:00:12;;;;;;;0.10;0.10;;;;;;;;;;6199856;22;20012;-91
2022/07/11 03:02:38;;;;;;;0.10;0.10;;;;;;;;;;6225254;22;20011;-90
2022/07/11 03:05:05;;;;;;;0.10;0.10;;;;;;;;;;6224934;22;20144;-90
2022/07/11 03:07:31;;;;;;;0.10;0.10;;;;;;;;;;6224903;22;20015;-89
2022/07/11 03:09:57;;;;;;;0.10;0.10;;;;;;;;;;6224951;22;20034;-89
2022/07/11 03:12:23;;;;;;;0.10;0.10;;;;;;;;;;6225358;22;20449;-90
2022/07/11 03:14:49;;;;;;;0.10;0.10;;;;;;;;;;6225046;22;20019;-90
2022/07/11 03:17:15;;;;;;;0.10;0.10;;;;;;;;;;6224944;22;20007;-91
2022/07/11 03:19:42;;;;;;;0.10;0.10;;;;;;;;;;6199949;22;20008;-91
2022/07/11 03:22:08;;;;;;;0.10;0.10;;;;;;;;;;6199841;22;20069;-92
2022/07/11 03:24:34;;;;;;;0.10;0.10;;;;;;;;;;6200004;22;20099;-90
2022/07/11 03:27:00;;;;;;;0.10;0.10;;;;;;;;;;6199860;22;20020;-90
2022/07/11 03:29:26;;;;;;;0.10;0.10;;;;;;;;;;6200044;22;20045;-90
2022/07/11 03:31:52;;;;;;;0.10;0.10;;;;;;;;;;6199552;22;20035;-90
2022/07/11 03:34:18;;;;;;;0.10;0.10;;;;;;;;;;6224625;22;20440;-89
2022/07/11 03:36:46;;;;;;;0.10;0.10;;;;;;;;;;6224688;22;20348;-91
2022/07/11 03:39:12;;;;;;;0.10;0.10;;;;;;;;;;6200113;22;20043;-90
2022/07/11 03:41:38;;;;;;;0.47;0.20;;;;;;;;;;6199915;22;20084;-91
2022/07/11 03:44:04;;;;;;;0.10;0.10;;;;;;;;;;6227394;22;20011;-91
2022/07/11 03:46:30;;;;;;;0.10;0.10;;;;;;;;;;6202717;22;20100;-90
2022/07/11 03:48:56;;;;;;;0.10;0.10;;;;;;;;;;6208624;22;20012;-91
2022/07/11 03:51:22;;;;;;;0.10;0.10;;;;;;;;;;6208992;22;19995;-91
2022/07/11 03:53:49;;;;;;;0.10;0.10;;;;;;;;;;6229209;22;20416;-92
2022/07/11 03:56:18;;;;;;;0.10;0.10;;;;;;;;;;6224667;22;20014;-91
2022/07/11 03:58:44;;;;;;;0.10;0.10;;;;;;;;;;6200436;22;20015;-92
2022/07/11 04:01:10;;;;;;;0.10;0.10;;;;;;;;;;6200165;22;20023;-92
2022/07/11 04:03:36;;;;;;;0.10;0.10;;;;;;;;;;6199999;22;20011;-92
2022/07/11 04:06:02;;;;;;;0.10;0.10;;;;;;;;;;6199328;22;20310;-92
2022/07/11 04:08:28;;;;;;;0.10;0.10;;;;;;;;;;6199148;22;20098;-92
2022/07/11 04:10:54;;;;;;;0.10;0.10;;;;;;;;;;6199980;22;20039;-92
2022/07/11 04:13:20;;;;;;;0.10;0.10;;;;;;;;;;6199888;22;20337;-91
2022/07/11 04:15:47;;;;;;;0.10;0.10;;;;;;;;;;6200004;22;20039;-92
2022/07/11 04:18:13;;;;;;;0.10;0.10;;;;;;;;;;6199437;22;20019;-91
2022/07/11 04:20:40;;;;;;;0.10;0.10;;;;;;;;;;6199227;22;20015;-90
2022/07/11 04:23:06;;;;;;;0.10;0.10;;;;;;;;;;6224178;22;20022;-90
2022/07/11 04:25:33;;;;;;;0.10;0.10;;;;;;;;;;6199238;22;20015;-91
2022/07/11 04:27:59;;;;;;;0.10;0.10;;;;;;;;;;6199417;22;20020;-92
2022/07/11 04:30:25;;;;;;;0.10;0.10;;;;;;;;;;6199480;22;20099;-91
2022/07/11 04:32:51;;;;;;;0.10;0.10;;;;;;;;;;6199530;22;20517;-91
2022/07/11 04:35:17;;;;;;;0.10;0.10;;;;;;;;;;6199335;22;20094;-92
2022/07/11 04:37:44;;;;;;;0.20;0.20;;;;;;;;;;6199526;22;20174;-92
2022/07/11 04:40:10;;;;;;;0.10;0.10;;;;;;;;;;6199756;22;20008;-92
2022/07/11 04:42:39;;;;;;;0.10;0.10;;;;;;;;;;6226388;22;20019;-92
2022/07/11 04:45:06;;;;;;;0.10;0.10;;;;;;;;;;6224551;22;20022;-93
2022/07/11 04:47:32;;;;;;;0.10;0.10;;;;;;;;;;6200041;22;20012;-93
2022/07/11 04:49:58;;;;;;;0.10;0.10;;;;;;;;;;6199899;22;20016;-93
2022/07/11 04:52:26;;;;;;;0.10;0.10;;;;;;;;;;6199968;22;20018;-93
2022/07/11 04:54:53;;;;;;;0.10;0.10;;;;;;;;;;6224617;22;20524;-93
2022/07/11 04:57:19;;;;;;;0.10;0.10;;;;;;;;;;6199624;22;20016;-94
2022/07/11 04:59:45;;;;;;;0.10;0.10;;;;;;;;;;6199145;22;20026;-92
2022/07/11 05:02:11;;;;;;;0.10;0.10;;;;;;;;;;6199506;22;20433;-93
2022/07/11 05:04:37;;;;;;;0.10;0.10;;;;;;;;;;6224492;22;20022;-93
2022/07/11 05:07:03;;;;;;;0.10;0.10;;;;;;;;;;6199633;22;20026;-92
2022/07/11 05:09:29;;;;;;;0.10;0.10;;;;;;;;;;6224675;22;20022;-93
2022/07/11 05:11:55;;;;;;;0.10;0.10;;;;;;;;;;6223959;22;20186;-92
2022/07/11 05:14:21;;;;;;;0.10;0.10;;;;;;;;;;6224264;22;20570;-92
2022/07/11 05:16:47;;;;;;;0.10;0.10;;;;;;;;;;6199172;22;20004;-93
2022/07/11 05:19:13;;;;;;;0.20;0.20;;;;;;;;;;6199463;22;20012;-93
2022/07/11 05:21:39;;;;;;;0.20;0.20;;;;;;;;;;6199909;22;20020;-94
2022/07/11 05:24:06;;;;;;;0.10;0.10;;;;;;;;;;6199783;22;20012;-94
2022/07/11 05:26:32;;;;;;;0.10;0.10;;;;;;;;;;6199634;22;20050;-89
2022/07/11 05:28:58;;;;;;;0.10;0.10;;;;;;;;;;6224258;22;20456;-93
2022/07/11 05:31:24;;;;;;;0.10;0.10;;;;;;;;;;6198637;22;20015;-94
2022/07/11 05:33:50;;;;;;;0.10;0.10;;;;;;;;;;6199932;22;20011;-94
2022/07/11 05:36:16;;;;;;;0.10;0.10;;;;;;;;;;6199208;22;20314;-94
2022/07/11 05:38:42;;;;;;;0.10;0.10;;;;;;;;;;6200399;22;20433;-94
2022/07/11 05:41:08;;;;;;;0.10;0.10;;;;;;;;;;6199070;22;20413;-93
2022/07/11 05:43:34;;;;;;;0.10;0.10;;;;;;;;;;6198726;22;20090;-95
2022/07/11 05:46:06;;;;;;;0.10;0.10;;;;;;;;;;6199180;22;20578;-93
2022/07/11 05:48:32;;;;;;;0.10;0.10;;;;;;;;;;6249782;22;20016;-94
2022/07/11 05:51:01;;;;;;;0.10;0.10;;;;;;;;;;6198998;22;20011;-95
2022/07/11 05:53:28;;;;;;;0.10;0.10;;;;;;;;;;6199877;22;20393;-95
2022/07/11 05:55:54;;;;;;;0.10;0.10;;;;;;;;;;6224548;22;20015;-95
2022/07/11 05:58:21;;;;;;;0.10;0.10;;;;;;;;;;6199685;22;20061;-91
2022/07/11 06:00:47;;;;;;;0.10;0.10;;;;;;;;;;6198523;22;20016;-92
2022/07/11 06:03:13;;;;;;;0.10;0.10;;;;;;;;;;6198252;22;20011;-91
2022/07/11 06:05:39;;;;;;;0.10;0.10;;;;;;;;;;6198330;22;20108;-91
2022/07/11 06:11:08;;;;;;;;;;;;;;;;;;6256173;22;20057;-91
2022/07/11 06:13:36;;;;;;;0.10;0.10;;;;;;;;;;6248397;22;20271;-89
2022/07/11 06:16:02;;;;;;;0.10;0.10;;;;;;;;;;6198863;22;20008;-90
2022/07/11 06:18:28;;;;;;;0.10;0.10;;;;;;;;;;6198176;22;20014;-91
2022/07/11 06:20:54;;;;;;;0.10;0.10;;;;;;;;;;6223234;22;20012;-91
2022/07/11 06:23:20;;;;;;;0.10;0.10;;;;;;;;;;6198465;22;20444;-92
2022/07/11 06:25:46;;;;;;;0.10;0.10;;;;;;;;;;6198921;22;20016;-91
2022/07/11 06:28:12;;;;;;;0.10;0.10;;;;;;;;;;6223529;22;20012;-91
2022/07/11 06:30:38;;;;;;;0.20;0.20;;;;;;;;;;6223898;22;20016;-91
2022/07/11 06:33:04;;;;;;;0.10;0.10;;;;;;;;;;6200818;22;20012;-90
2022/07/11 06:35:31;;;;;;;0.10;0.10;;;;;;;;;;6200043;22;20008;-91
2022/07/11 06:37:57;;;;;;;0.10;0.10;;;;;;;;;;6200209;22;20019;-90
2022/07/11 06:40:23;;;;;;;0.10;0.10;;;;;;;;;;6200336;22;20050;-91
2022/07/11 06:42:50;;;;;;;0.10;0.10;;;;;;;;;;6200377;22;20016;-90
2022/07/11 06:45:16;;;;;;;0.10;0.10;;;;;;;;;;6250948;22;20529;-92
2022/07/11 06:47:42;;;;;;;0.10;0.10;;;;;;;;;;6200782;22;20012;-92
2022/07/11 06:50:08;;;;;;;0.10;0.10;;;;;;;;;;6225097;22;20448;-92
2022/07/11 06:52:34;;;;;;;0.10;0.10;;;;;;;;;;6200484;22;20314;-91
2022/07/11 06:55:00;;;;;;;0.10;0.10;;;;;;;;;;6200220;22;20383;-91
2022/07/11 06:57:26;;;;;;;0.10;0.10;;;;;;;;;;6199999;22;20083;-91
2022/07/11 06:59:52;;;;;;;0.10;0.10;;;;;;;;;;6225531;22;20019;-91
2022/07/11 07:02:18;;;;;;;0.10;0.10;;;;;;;;;;6225007;22;20015;-91
2022/07/11 07:04:44;;;;;;;0.10;0.10;;;;;;;;;;6199700;22;20514;-91
2022/07/11 07:07:10;;;;;;;0.10;0.10;;;;;;;;;;6199767;22;20058;-88
2022/07/11 07:09:36;;;;;;;0.10;0.10;;;;;;;;;;6224977;22;20011;-89
2022/07/11 07:12:02;;;;;;;0.10;0.10;;;;;;;;;;6199673;22;20022;-89
2022/07/11 07:14:28;;;;;;;0.10;0.10;;;;;;;;;;6199922;22;20015;-90
2022/07/11 07:16:54;;;;;;;0.10;0.10;;;;;;;;;;6200045;22;20014;-90
2022/07/11 07:19:21;;;;;;;0.10;0.10;;;;;;;;;;6224502;22;20007;-91
2022/07/11 07:21:47;;;;;;;0.10;0.10;;;;;;;;;;6224831;22;20016;-89
2022/07/11 07:24:13;;;;;;;0.10;0.10;;;;;;;;;;6225049;22;20095;-91
2022/07/11 07:26:39;;;;;;;0.10;0.10;;;;;;;;;;6199958;22;20022;-90
2022/07/11 07:29:05;;;;;;;0.10;0.10;;;;;;;;;;6199673;22;20154;-93
2022/07/11 07:31:31;;;;;;;0.10;0.10;;;;;;;;;;6200111;22;20019;-89
2022/07/11 07:33:57;;;;;;;0.10;0.10;;;;;;;;;;6199584;22;20012;-93
2022/07/11 07:36:23;;;;;;;0.10;0.10;;;;;;;;;;6199895;22;20285;-88
2022/07/11 07:38:49;;;;;;;0.10;0.10;;;;;;;;;;6199563;22;20408;-88
2022/07/11 07:41:15;;;;;;;0.10;0.10;;;;;;;;;;6224636;22;20012;-87
2022/07/11 07:43:42;;;;;;;0.10;0.10;;;;;;;;;;6224581;22;20015;-89
2022/07/11 07:46:10;;;;;;;0.10;0.10;;;;;;;;;;6224524;22;20041;-90
2022/07/11 07:48:36;;;;;;;0.10;0.10;;;;;;;;;;6199255;22;20333;-87
2022/07/11 07:51:02;;;;;;;0.10;0.10;;;;;;;;;;6224274;22;20007;-87
2022/07/11 07:53:28;;;;;;;0.10;0.10;;;;;;;;;;6199324;22;20065;-87
2022/07/11 07:55:54;;;;;;;0.20;0.20;;;;;;;;;;6224318;22;20372;-87
2022/07/11 07:58:20;;;;;;;0.10;0.10;;;;;;;;;;6224342;22;20018;-89
2022/07/11 08:03:31;;;;;;;0.10;0.10;;;;;;;;;;6249341;22;20020;-91
2022/07/11 08:05:57;;;;;;;0.10;0.10;;;;;;;;;;6198940;22;20012;-90
2022/07/11 08:08:23;;;;;;;0.10;0.10;;;;;;;;;;6199208;22;20019;-90
2022/07/11 08:10:51;;;;;;;0.10;0.10;;;;;;;;;;6224376;22;20087;-91
2022/07/11 08:13:19;;;;;;;0.10;0.10;;;;;;;;;;6224253;22;20020;-91
2022/07/11 08:15:46;;;;;;;0.10;0.10;;;;;;;;;;6199402;22;20042;-89
2022/07/11 08:18:12;;;;;;;0.10;0.10;;;;;;;;;;6249581;22;20007;-92
2022/07/11 08:20:38;;;;;;;0.10;0.10;;;;;;;;;;6199139;22;20387;-90
2022/07/11 08:23:04;;;;;;;0.10;0.10;;;;;;;;;;6199183;22;20086;-91
2022/07/11 08:25:30;;;;;;;0.10;0.10;;;;;;;;;;6199507;22;20012;-89
2022/07/11 08:27:56;;;;;;;0.10;0.10;;;;;;;;;;6225501;22;20405;-89
2022/07/11 08:30:22;;;;;;;0.10;0.10;;;;;;;;;;6198922;22;20046;-89
2022/07/11 08:32:48;;;;;;;0.10;0.10;;;;;;;;;;6198974;22;20090;-89
2022/07/11 08:35:15;;;;;;;0.10;0.10;;;;;;;;;;6199227;22;20049;-89
2022/07/11 08:37:41;;;;;;;0.10;0.10;;;;;;;;;;6199108;22;20004;-89
2022/07/11 08:40:08;;;;;;;0.10;0.10;;;;;;;;;;6198763;22;20012;-89
2022/07/11 08:42:37;;;;;;;0.10;0.10;;;;;;;;;;6223955;22;20312;-89
2022/07/11 08:45:03;;;;;;;0.10;0.10;;;;;;;;;;6198824;22;20024;-88
2022/07/11 08:47:29;;;;;;;0.10;0.10;;;;;;;;;;6224124;22;20022;-88
2022/07/11 08:49:55;;;;;;;0.10;0.10;;;;;;;;;;6223539;22;20409;-89
2022/07/11 08:52:22;;;;;;;0.10;0.10;;;;;;;;;;6198721;22;20007;-89
2022/07/11 08:54:48;;;;;;;0.10;0.10;;;;;;;;;;6198539;22;20091;-89
2022/07/11 08:57:15;;;;;;;0.10;0.10;;;;;;;;;;6224183;22;20046;-89
2022/07/11 08:59:42;;;;;;;0.10;0.10;;;;;;;;;;6198663;22;20456;-89
2022/07/11 09:02:07;;;;;;;0.10;0.10;;;;;;;;;;6223713;22;20015;-89
2022/07/11 09:04:34;;;;;;;0.10;0.10;;;;;;;;;;6223764;22;20026;-89
2022/07/11 09:07:01;;;;;;;0.10;0.10;;;;;;;;;;6223381;22;20043;-89
2022/07/11 09:09:27;;;;;;;0.10;0.10;;;;;;;;;;6223768;22;20349;-89
2022/07/11 09:11:53;;;;;;;0.10;0.10;;;;;;;;;;6198576;22;20015;-89
2022/07/11 09:14:23;;;;;;;0.10;0.10;;;;;;;;;;6223498;22;20012;-88
2022/07/11 09:16:53;;;;;;;0.20;0.20;;;;;;;;;;6223805;22;20352;-89
2022/07/11 09:19:23;;;;;;;0.10;0.10;;;;;;;;;;6223868;22;20023;-90
2022/07/11 09:27:46;;;;;;;0.10;0.10;;;;;;;;;;6229654;22;20039;-89
2022/07/11 09:30:18;;;;;;;0.10;0.10;;;;;;;;;;6225220;22;20058;-89
2022/07/11 09:32:58;;;;;;;0.10;0.10;;;;;;;;;;6250010;22;20008;-89
2022/07/11 09:35:25;;;;;;;0.10;0.10;;;;;;;;;;6221591;22;20016;-88
2022/07/11 09:37:51;;;;;;;0.10;0.10;;;;;;;;;;6211715;22;20015;-89
2022/07/11 09:40:18;;;;;;;0.10;0.10;;;;;;;;;;6213253;22;20035;-90
2022/07/11 09:42:49;;;;;;;0.10;0.10;;;;;;;;;;6226129;22;20015;-90
2022/07/11 09:45:16;;;;;;;0.10;0.10;;;;;;;;;;6241244;22;20011;-89
2022/07/11 09:47:43;;;;;;;0.10;0.10;;;;;;;;;;6223835;22;20015;-90
2022/07/11 09:50:09;;;;;;;0.10;0.10;;;;;;;;;;6223487;22;20012;-90
2022/07/11 09:52:35;;;;;;;0.10;0.10;;;;;;;;;;6223320;22;20310;-89
2022/07/11 09:55:01;;;;;;;0.10;0.10;;;;;;;;;;6199630;22;20012;-89
2022/07/11 09:57:37;;;;;;;0.10;0.10;;;;;;;;;;6198330;22;20069;-89
2022/07/11 10:00:04;;;;;;;0.10;0.10;;;;;;;;;;6223141;22;20073;-90
2022/07/11 10:02:30;;;;;;;0.10;0.10;;;;;;;;;;6198511;22;20090;-90
2022/07/11 10:04:59;;;;;;;0.10;0.10;;;;;;;;;;6198955;22;20070;-89
2022/07/11 10:07:25;;;;;;;0.10;0.10;;;;;;;;;;6197950;22;20468;-89
2022/07/11 10:09:51;;;;;;;0.10;0.10;;;;;;;;;;6222946;22;20382;-89
2022/07/11 10:12:17;;;;;;;0.10;0.10;;;;;;;;;;6198134;22;20091;-88
2022/07/11 10:14:43;;;;;;;0.10;0.10;;;;;;;;;;6198128;22;20108;-89
2022/07/11 10:17:15;;;;;;;0.10;0.10;;;;;;;;;;6223039;22;20328;-89
2022/07/11 10:19:44;;;;;;;0.10;0.10;;;;;;;;;;6223205;22;20008;-90
2022/07/11 10:22:16;;;;;;;0.10;0.10;;;;;;;;;;6223144;22;20019;-89
2022/07/11 10:24:53;;;;;;;0.10;0.10;;;;;;;;;;6198008;22;20011;-89
2022/07/11 10:27:25;;;;;;;0.10;0.10;;;;;;;;;;6223388;22;20020;-89
2022/07/11 10:29:52;;;;;;;0.10;0.10;;;;;;;;;;6198530;22;20015;-88
2022/07/11 10:32:19;;;;;;;0.10;0.10;;;;;;;;;;6198015;22;20034;-89
2022/07/11 10:34:46;;;;;;;0.10;0.10;;;;;;;;;;6198334;22;20012;-89
2022/07/11 10:37:13;;;;;;;0.10;0.10;;;;;;;;;;6198302;22;20019;-89
2022/07/11 10:39:46;;;;;;;0.10;0.10;;;;;;;;;;6198062;22;20008;-89
2022/07/11 10:42:14;;;;;;;0.10;0.10;;;;;;;;;;6199799;22;20379;-89
2022/07/11 10:44:51;;;;;;;0.10;0.10;;;;;;;;;;6223326;22;20012;-89
2022/07/11 10:47:36;;;;;;;0.10;0.10;;;;;;;;;;6233929;22;20043;-90
2022/07/11 10:50:11;;;;;;;0.10;0.10;;;;;;;;;;6219176;22;20049;-92
2022/07/11 10:52:37;;;;;;;0.10;0.10;;;;;;;;;;6234016;22;20012;-91
2022/07/11 10:55:35;;;;;;;0.10;0.10;;;;;;;;;;6227451;22;20333;-91
2022/07/11 10:58:13;;;;;;;0.13;0.13;;;;;;;;;;6198326;22;20042;-90
2022/07/11 11:00:40;;;;;;;0.10;0.10;;;;;;;;;;6223568;22;20012;-89
2022/07/11 11:03:16;;;;;;;0.10;0.10;;;;;;;;;;6227390;22;20054;-88
2022/07/11 11:06:03;;;;;;;0.10;0.10;;;;;;;;;;6197672;22;20337;-88
2022/07/11 11:08:32;;;;;;;0.10;0.10;;;;;;;;;;6226810;22;20020;-92
2022/07/11 11:10:59;;;;;;;0.10;0.10;;;;;;;;;;6222847;22;20350;-91
2022/07/11 11:13:25;;;;;;;0.10;0.10;;;;;;;;;;6222703;22;20449;-90
2022/07/11 11:15:55;;;;;;;0.10;0.10;;;;;;;;;;6197791;22;20011;-88
2022/07/11 11:18:24;;;;;;;0.10;0.10;;;;;;;;;;6224470;22;20073;-87
2022/07/11 11:20:59;;;;;;;0.10;0.10;;;;;;;;;;6249885;22;20012;-87
2022/07/11 11:23:26;;;;;;;0.10;0.10;;;;;;;;;;6224556;22;20050;-90
2022/07/11 11:25:52;;;;;;;0.10;0.10;;;;;;;;;;6200136;22;20012;-90
2022/07/11 11:28:22;;;;;;;0.10;0.10;;;;;;;;;;6199698;22;20012;-91
2022/07/11 11:30:55;;;;;;;0.10;0.10;;;;;;;;;;6222025;22;20011;-89
2022/07/11 11:33:21;;;;;;;0.10;0.10;;;;;;;;;;6199410;22;20007;-87
2022/07/11 11:35:59;;;;;;;0.10;0.10;;;;;;;;;;6224308;22;20080;-87
2022/07/11 11:38:25;;;;;;;0.10;0.10;;;;;;;;;;6224758;22;20008;-87
2022/07/11 11:40:51;;;;;;;0.10;0.10;;;;;;;;;;6224667;22;20079;-89
2022/07/11 11:43:23;;;;;;;0.10;0.10;;;;;;;;;;6199436;22;20061;-90
2022/07/11 11:45:49;;;;;;;;;;;;;;;;;;6199923;22;20050;-89
2022/07/11 11:48:27;;;;;;;0.10;0.10;;;;;;;;;;6249145;22;19971;-89
2022/07/11 11:50:53;;;;;;;0.10;0.10;;;;;;;;;;6224509;22;20004;-90
2022/07/11 11:53:19;;;;;;;0.10;0.10;;;;;;;;;;6199375;22;20061;-89
2022/07/11 11:55:47;;;;;;;0.10;0.10;;;;;;;;;;6224386;22;20393;-90
2022/07/11 11:58:13;;;;;;;0.10;0.10;;;;;;;;;;6199019;22;20459;-90
2022/07/11 12:00:39;;;;;;;0.10;0.10;;;;;;;;;;6199168;22;20449;-89
2022/07/11 12:03:05;;;;;;;0.10;0.10;;;;;;;;;;6224188;22;20023;-89
2022/07/11 12:05:32;;;;;;;0.10;0.10;;;;;;;;;;6224062;22;20042;-89
2022/07/11 12:07:58;;;;;;;0.10;0.10;;;;;;;;;;6224648;22;20023;-89
2022/07/11 12:10:26;;;;;;;0.10;0.10;;;;;;;;;;6199497;22;20008;-90
2022/07/11 12:12:53;;;;;;;0.10;0.10;;;;;;;;;;6224328;22;20015;-92
2022/07/11 12:15:34;;;;;;;0.10;0.10;;;;;;;;;;6199405;22;20015;-90
2022/07/11 12:18:04;;;;;;;0.10;0.10;;;;;;;;;;6199761;22;20007;-90
2022/07/11 12:20:36;;;;;;;0.10;0.10;;;;;;;;;;6225066;22;20014;-91
2022/07/11 12:23:04;;;;;;;0.10;0.10;;;;;;;;;;6199252;22;20337;-88
2022/07/11 12:25:32;;;;;;;0.10;0.10;;;;;;;;;;6199349;22;20008;-88
2022/07/11 12:27:58;;;;;;;0.10;0.10;;;;;;;;;;6198848;22;20014;-88
2022/07/11 12:30:25;;;;;;;0.10;0.10;;;;;;;;;;6224048;22;20043;-88
2022/07/11 12:33:07;;;;;;;0.10;0.10;;;;;;;;;;6224364;22;20012;-85
2022/07/11 12:35:33;;;;;;;0.10;0.10;;;;;;;;;;6249963;22;20019;-86
2022/07/11 12:37:59;;;;;;;0.10;0.10;;;;;;;;;;6223633;22;20012;-86
2022/07/11 12:40:25;;;;;;;0.10;0.10;;;;;;;;;;6249139;22;20060;-85
2022/07/11 12:42:50;;;;;;;0.10;0.10;;;;;;;;;;6223915;22;20035;-86
2022/07/11 12:45:17;;;;;;;0.10;0.10;;;;;;;;;;6198807;22;20011;-85
2022/07/11 12:47:43;;;;;;;0.10;0.10;;;;;;;;;;6249067;22;20019;-89
2022/07/11 12:50:17;;;;;;;0.10;0.10;;;;;;;;;;6223693;22;20072;-88
2022/07/11 12:52:54;;;;;;;0.10;0.10;;;;;;;;;;6223569;22;20361;-88
2022/07/11 12:55:28;;;;;;;0.10;0.10;;;;;;;;;;6198860;22;20091;-87
2022/07/11 12:58:00;;;;;;;0.10;0.10;;;;;;;;;;6199073;22;20433;-88
2022/07/11 13:00:26;;;;;;;0.10;0.10;;;;;;;;;;6198988;22;20043;-89
2022/07/11 13:02:52;;;;;;;0.10;0.10;;;;;;;;;;6223716;22;20012;-89
2022/07/11 13:05:19;;;;;;;0.10;0.10;;;;;;;;;;6223508;22;20047;-88
2022/07/11 13:10:50;;;;;;;0.10;0.10;;;;;;;;;;6227500;22;20098;-88
2022/07/11 13:13:15;;;;;;;0.10;0.10;;;;;;;;;;6248604;22;20020;-88
2022/07/11 13:15:41;;;;;;;0.10;0.10;;;;;;;;;;6198487;22;20125;-87
2022/07/11 13:18:08;;;;;;;0.10;0.10;;;;;;;;;;6223411;22;20018;-88
2022/07/11 13:20:35;;;;;;;0.10;0.10;;;;;;;;;;6223724;22;20090;-88
2022/07/11 13:23:01;;;;;;;0.20;0.20;;;;;;;;;;6198604;22;20074;-88
2022/07/11 13:25:27;;;;;;;0.10;0.10;;;;;;;;;;6198614;22;20039;-88
2022/07/11 13:27:53;;;;;;;0.10;0.10;;;;;;;;;;6198517;22;20020;-88
2022/07/11 13:30:25;;;;;;;0.10;0.10;;;;;;;;;;6223495;22;20473;-88
2022/07/11 13:32:51;;;;;;;;;;;;;;;;;;6200143;22;20114;-88
2022/07/11 13:35:17;;;;;;;0.10;0.10;;;;;;;;;;6222543;22;19911;-88
2022/07/11 13:37:44;;;;;;;0.10;0.10;;;;;;;;;;6223493;22;20378;-88
2022/07/11 13:40:14;;;;;;;0.10;0.10;;;;;;;;;;6198163;22;20012;-88
2022/07/11 13:42:40;;;;;;;0.10;0.10;;;;;;;;;;6223515;22;20342;-86
2022/07/11 13:45:07;;;;;;;0.10;0.10;;;;;;;;;;6223279;22;20080;-88
2022/07/11 13:47:33;;;;;;;0.10;0.10;;;;;;;;;;6198421;22;20015;-88
2022/07/11 13:50:00;;;;;;;0.10;0.10;;;;;;;;;;6223218;22;20090;-88
2022/07/11 13:52:26;;;;;;;0.10;0.10;;;;;;;;;;6224097;22;20062;-88
2022/07/11 13:54:52;;;;;;;0.10;0.10;;;;;;;;;;6224483;22;20008;-88
2022/07/11 13:57:19;;;;;;;0.10;0.10;;;;;;;;;;6198602;22;20086;-88
2022/07/11 13:59:45;;;;;;;0.10;0.10;;;;;;;;;;6198837;22;20079;-88
2022/07/11 14:02:11;;;;;;;0.10;0.10;;;;;;;;;;6223614;22;20069;-89
2022/07/11 14:04:37;;;;;;;0.10;0.10;;;;;;;;;;6223677;22;20045;-88
2022/07/11 14:07:04;;;;;;;0.10;0.10;;;;;;;;;;6222877;22;20015;-89
2022/07/11 14:09:30;;;;;;;0.10;0.10;;;;;;;;;;6198333;22;20016;-88
2022/07/11 14:11:56;;;;;;;0.10;0.10;;;;;;;;;;6198111;22;20069;-88
2022/07/11 14:14:22;;;;;;;0.10;0.10;;;;;;;;;;6223558;22;20356;-88
2022/07/11 14:16:48;;;;;;;0.10;0.10;;;;;;;;;;6223103;22;20058;-88
2022/07/11 14:19:14;;;;;;;0.10;0.10;;;;;;;;;;6248168;22;20011;-88
2022/07/11 14:21:41;;;;;;;0.10;0.10;;;;;;;;;;6197981;22;20022;-89
2022/07/11 14:24:08;;;;;;;0.10;0.10;;;;;;;;;;6197985;22;20345;-88
2022/07/11 14:26:34;;;;;;;0.10;0.10;;;;;;;;;;6248038;22;20018;-87
2022/07/11 14:29:00;;;;;;;0.10;0.10;;;;;;;;;;6198277;22;20043;-88
2022/07/11 14:31:26;;;;;;;0.10;0.10;;;;;;;;;;6223408;22;20065;-88
2022/07/11 14:33:53;;;;;;;0.10;0.10;;;;;;;;;;6223062;22;20061;-88
2022/07/11 14:36:20;;;;;;;0.10;0.10;;;;;;;;;;6223182;22;20379;-88
2022/07/11 14:38:46;;;;;;;0.10;0.10;;;;;;;;;;6198124;22;20333;-88
2022/07/11 14:41:16;;;;;;;0.10;0.10;;;;;;;;;;6223511;22;20369;-88
2022/07/11 14:43:42;;;;;;;0.10;0.10;;;;;;;;;;6198514;22;20012;-87
2022/07/11 14:46:08;;;;;;;0.10;0.10;;;;;;;;;;6223295;22;20475;-88
2022/07/11 14:48:34;;;;;;;0.10;0.10;;;;;;;;;;6248083;22;20019;-88
2022/07/11 14:51:00;;;;;;;0.10;0.10;;;;;;;;;;6222927;22;20058;-87
2022/07/11 14:53:26;;;;;;;0.10;0.10;;;;;;;;;;6224598;22;20012;-88
2022/07/11 14:55:53;;;;;;;0.10;0.10;;;;;;;;;;6225046;22;20008;-88
2022/07/11 14:58:19;;;;;;;0.10;0.10;;;;;;;;;;6224993;22;20087;-88